sensor_id;sensor_type;location;lat;lon;timestamp;pressure;altitude;pressure_sealevel;temperature;humidity
70971;BME280;58632;51.718;19.446;2023-03-24T00:00:42;98891.67;;;9.01;100.00
70971;BME280;58632;51.718;19.446;2023-03-24T00:03:21;98893.30;;;8.99;100.00
70971;BME280;58632;51.718;19.446;2023-03-24T00:05:57;98892.48;;;8.96;100.00
70971;BME280;58632;51.718;19.446;2023-03-24T00:08:22;98890.65;;;8.90;100.00
70971;BME280;58632;51.718;19.446;2023-03-24T00:10:48;98891.45;;;8.84;100.00
70971;BME280;58632;51.718;19.446;2023-03-24T00:13:15;98896.16;;;8.77;100.00
70971;BME280;58632;51.718;19.446;2023-03-24T00:15:41;98897.06;;;8.68;100.00
70971;BME280;58632;51.718;19.446;2023-03-24T00:18:06;98896.16;;;8.62;100.00
70971;BME280;58632;51.718;19.446;2023-03-24T00:20:34;98896.52;;;8.56;100.00
70971;BME280;58632;51.718;19.446;2023-03-24T00:23:00;98896.84;;;8.53;100.00
70971;BME280;58632;51.718;19.446;2023-03-24T00:25:27;98898.71;;;8.51;100.00
70971;BME280;58632;51.718;19.446;2023-03-24T00:27:54;98894.45;;;8.49;100.00
70971;BME280;58632;51.718;19.446;2023-03-24T00:30:19;98893.36;;;8.49;100.00
70971;BME280;58632;51.718;19.446;2023-03-24T00:32:45;98892.23;;;8.50;100.00
70971;BME280;58632;51.718;19.446;2023-03-24T00:35:11;98889.54;;;8.49;100.00
70971;BME280;58632;51.718;19.446;2023-03-24T00:37:37;98889.29;;;8.47;100.00
70971;BME280;58632;51.718;19.446;2023-03-24T00:40:04;98885.39;;;8.44;100.00
70971;BME280;58632;51.718;19.446;2023-03-24T00:42:35;98879.92;;;8.40;100.00
70971;BME280;58632;51.718;19.446;2023-03-24T00:45:01;98875.04;;;8.36;100.00
70971;BME280;58632;51.718;19.446;2023-03-24T00:47:28;98869.02;;;8.29;100.00
70971;BME280;58632;51.718;19.446;2023-03-24T00:49:54;98871.83;;;8.24;100.00
70971;BME280;58632;51.718;19.446;2023-03-24T00:52:22;98870.00;;;8.19;100.00
70971;BME280;58632;51.718;19.446;2023-03-24T00:54:52;98868.51;;;8.13;100.00
70971;BME280;58632;51.718;19.446;2023-03-24T00:57:22;98868.49;;;8.09;100.00
70971;BME280;58632;51.718;19.446;2023-03-24T00:59:50;98868.61;;;8.05;100.00
70971;BME280;58632;51.718;19.446;2023-03-24T01:02:21;98865.14;;;8.05;100.00
70971;BME280;58632;51.718;19.446;2023-03-24T01:04:47;98864.35;;;8.04;100.00
70971;BME280;58632;51.718;19.446;2023-03-24T01:07:18;98858.91;;;8.01;100.00
70971;BME280;58632;51.718;19.446;2023-03-24T01:09:44;98857.77;;;7.99;100.00
70971;BME280;58632;51.718;19.446;2023-03-24T01:12:18;98857.48;;;7.96;100.00
70971;BME280;58632;51.718;19.446;2023-03-24T01:14:45;98851.64;;;7.92;100.00
70971;BME280;58632;51.718;19.446;2023-03-24T01:17:11;98850.27;;;7.88;100.00
70971;BME280;58632;51.718;19.446;2023-03-24T01:19:37;98850.02;;;7.85;100.00
70971;BME280;58632;51.718;19.446;2023-03-24T01:22:04;98851.16;;;7.83;100.00
70971;BME280;58632;51.718;19.446;2023-03-24T01:24:30;98852.45;;;7.80;100.00
70971;BME280;58632;51.718;19.446;2023-03-24T01:26:55;98850.36;;;7.79;100.00
70971;BME280;58632;51.718;19.446;2023-03-24T01:29:21;98848.92;;;7.78;100.00
70971;BME280;58632;51.718;19.446;2023-03-24T01:31:46;98844.30;;;7.72;100.00
70971;BME280;58632;51.718;19.446;2023-03-24T01:34:12;98845.75;;;7.67;100.00
70971;BME280;58632;51.718;19.446;2023-03-24T01:36:38;98841.75;;;7.66;100.00
70971;BME280;58632;51.718;19.446;2023-03-24T01:39:03;98833.98;;;7.67;100.00
70971;BME280;58632;51.718;19.446;2023-03-24T01:41:31;98840.70;;;7.65;100.00
70971;BME280;58632;51.718;19.446;2023-03-24T01:43:57;98835.96;;;7.61;100.00
70971;BME280;58632;51.718;19.446;2023-03-24T01:46:24;98831.84;;;7.58;100.00
70971;BME280;58632;51.718;19.446;2023-03-24T01:48:55;98832.36;;;7.55;100.00
70971;BME280;58632;51.718;19.446;2023-03-24T01:53:57;98833.14;;;7.54;100.00
70971;BME280;58632;51.718;19.446;2023-03-24T01:56:24;98832.11;;;7.52;100.00
70971;BME280;58632;51.718;19.446;2023-03-24T01:58:52;98833.94;;;7.52;100.00
70971;BME280;58632;51.718;19.446;2023-03-24T02:01:19;98832.81;;;7.55;100.00
70971;BME280;58632;51.718;19.446;2023-03-24T02:03:46;98837.30;;;7.58;100.00
70971;BME280;58632;51.718;19.446;2023-03-24T02:06:12;98835.69;;;7.58;100.00
70971;BME280;58632;51.718;19.446;2023-03-24T02:08:52;98835.67;;;7.60;100.00
70971;BME280;58632;51.718;19.446;2023-03-24T02:11:19;98843.35;;;7.63;100.00
70971;BME280;58632;51.718;19.446;2023-03-24T02:13:45;98841.91;;;7.62;100.00
70971;BME280;58632;51.718;19.446;2023-03-24T02:21:27;98838.63;;;7.70;100.00
70971;BME280;58632;51.718;19.446;2023-03-24T02:26:54;98833.11;;;7.87;100.00
70971;BME280;58632;51.718;19.446;2023-03-24T02:39:34;98832.64;;;8.34;100.00
70971;BME280;58632;51.718;19.446;2023-03-24T02:44:33;98828.65;;;8.43;100.00
70971;BME280;58632;51.718;19.446;2023-03-24T02:47:08;98827.88;;;8.46;100.00
70971;BME280;58632;51.718;19.446;2023-03-24T02:49:55;98826.54;;;8.48;100.00
70971;BME280;58632;51.718;19.446;2023-03-24T02:52:38;98825.41;;;8.52;100.00
70971;BME280;58632;51.718;19.446;2023-03-24T02:57:44;98826.11;;;8.64;100.00
70971;BME280;58632;51.718;19.446;2023-03-24T03:00:17;98824.05;;;8.72;100.00
70971;BME280;58632;51.718;19.446;2023-03-24T03:02:45;98824.67;;;8.78;100.00
70971;BME280;58632;51.718;19.446;2023-03-24T03:05:21;98821.75;;;8.83;100.00
70971;BME280;58632;51.718;19.446;2023-03-24T03:07:48;98821.19;;;8.89;100.00
70971;BME280;58632;51.718;19.446;2023-03-24T03:10:26;98815.41;;;8.93;100.00
70971;BME280;58632;51.718;19.446;2023-03-24T03:12:54;98813.35;;;8.97;100.00
70971;BME280;58632;51.718;19.446;2023-03-24T03:15:36;98813.61;;;9.00;100.00
70971;BME280;58632;51.718;19.446;2023-03-24T03:18:08;98807.29;;;9.04;100.00
70971;BME280;58632;51.718;19.446;2023-03-24T03:20:37;98808.01;;;9.09;100.00
70971;BME280;58632;51.718;19.446;2023-03-24T03:23:07;98804.61;;;9.14;100.00
70971;BME280;58632;51.718;19.446;2023-03-24T03:25:35;98803.56;;;9.20;100.00
70971;BME280;58632;51.718;19.446;2023-03-24T03:28:03;98808.70;;;9.26;100.00
70971;BME280;58632;51.718;19.446;2023-03-24T03:30:34;98804.65;;;9.33;100.00
70971;BME280;58632;51.718;19.446;2023-03-24T03:33:05;98804.13;;;9.41;100.00
70971;BME280;58632;51.718;19.446;2023-03-24T03:35:37;98807.95;;;9.48;100.00
70971;BME280;58632;51.718;19.446;2023-03-24T03:38:18;98812.89;;;9.55;100.00
70971;BME280;58632;51.718;19.446;2023-03-24T03:40:52;98814.36;;;9.60;100.00
70971;BME280;58632;51.718;19.446;2023-03-24T03:43:20;98805.48;;;9.63;100.00
70971;BME280;58632;51.718;19.446;2023-03-24T03:45:45;98802.59;;;9.65;100.00
70971;BME280;58632;51.718;19.446;2023-03-24T03:48:11;98803.23;;;9.65;100.00
70971;BME280;58632;51.718;19.446;2023-03-24T03:50:36;98794.90;;;9.64;100.00
70971;BME280;58632;51.718;19.446;2023-03-24T03:53:04;98794.71;;;9.63;100.00
70971;BME280;58632;51.718;19.446;2023-03-24T03:55:29;98794.17;;;9.61;100.00
70971;BME280;58632;51.718;19.446;2023-03-24T03:57:56;98795.44;;;9.61;100.00
70971;BME280;58632;51.718;19.446;2023-03-24T04:00:22;98794.34;;;9.59;100.00
70971;BME280;58632;51.718;19.446;2023-03-24T04:03:01;98797.23;;;9.54;100.00
70971;BME280;58632;51.718;19.446;2023-03-24T04:05:35;98791.09;;;9.50;100.00
70971;BME280;58632;51.718;19.446;2023-03-24T04:08:04;98785.70;;;9.48;100.00
70971;BME280;58632;51.718;19.446;2023-03-24T04:10:55;98780.20;;;9.44;100.00
70971;BME280;58632;51.718;19.446;2023-03-24T04:15:57;98774.61;;;9.31;100.00
70971;BME280;58632;51.718;19.446;2023-03-24T04:31:21;98762.42;;;8.98;100.00
70971;BME280;58632;51.718;19.446;2023-03-24T04:33:54;98759.13;;;9.03;100.00
70971;BME280;58632;51.718;19.446;2023-03-24T04:38:52;98755.28;;;9.12;100.00
70971;BME280;58632;51.718;19.446;2023-03-24T04:41:21;98756.95;;;9.15;100.00
70971;BME280;58632;51.718;19.446;2023-03-24T04:43:49;98759.94;;;9.18;100.00
70971;BME280;58632;51.718;19.446;2023-03-24T04:46:16;98759.80;;;9.23;100.00
70971;BME280;58632;51.718;19.446;2023-03-24T04:48:43;98758.72;;;9.27;100.00
70971;BME280;58632;51.718;19.446;2023-03-24T04:51:09;98755.06;;;9.32;100.00
70971;BME280;58632;51.718;19.446;2023-03-24T04:53:35;98755.30;;;9.38;100.00
70971;BME280;58632;51.718;19.446;2023-03-24T04:56:06;98753.06;;;9.39;100.00
70971;BME280;58632;51.718;19.446;2023-03-24T04:58:38;98751.95;;;9.43;100.00
70971;BME280;58632;51.718;19.446;2023-03-24T05:01:05;98753.98;;;9.47;100.00
70971;BME280;58632;51.718;19.446;2023-03-24T05:03:33;98752.45;;;9.50;100.00
70971;BME280;58632;51.718;19.446;2023-03-24T05:06:02;98751.54;;;9.53;100.00
70971;BME280;58632;51.718;19.446;2023-03-24T05:08:29;98751.67;;;9.56;100.00
70971;BME280;58632;51.718;19.446;2023-03-24T05:10:55;98750.89;;;9.56;100.00
70971;BME280;58632;51.718;19.446;2023-03-24T05:13:21;98753.48;;;9.50;100.00
70971;BME280;58632;51.718;19.446;2023-03-24T05:15:47;98752.39;;;9.49;100.00
70971;BME280;58632;51.718;19.446;2023-03-24T05:18:13;98758.73;;;9.49;100.00
70971;BME280;58632;51.718;19.446;2023-03-24T05:20:39;98757.25;;;9.51;100.00
70971;BME280;58632;51.718;19.446;2023-03-24T05:23:05;98757.21;;;9.58;100.00
70971;BME280;58632;51.718;19.446;2023-03-24T05:25:31;98757.73;;;9.64;100.00
70971;BME280;58632;51.718;19.446;2023-03-24T05:27:57;98756.73;;;9.71;100.00
70971;BME280;58632;51.718;19.446;2023-03-24T05:30:23;98757.30;;;9.80;100.00
70971;BME280;58632;51.718;19.446;2023-03-24T05:32:49;98759.56;;;9.87;100.00
70971;BME280;58632;51.718;19.446;2023-03-24T05:35:14;98757.08;;;9.95;100.00
70971;BME280;58632;51.718;19.446;2023-03-24T05:37:40;98760.95;;;10.04;100.00
70971;BME280;58632;51.718;19.446;2023-03-24T05:40:06;98758.44;;;10.11;100.00
70971;BME280;58632;51.718;19.446;2023-03-24T05:42:32;98757.33;;;10.15;100.00
70971;BME280;58632;51.718;19.446;2023-03-24T05:44:57;98756.37;;;10.20;100.00
70971;BME280;58632;51.718;19.446;2023-03-24T05:47:23;98754.44;;;10.26;100.00
70971;BME280;58632;51.718;19.446;2023-03-24T05:49:48;98755.73;;;10.31;100.00
70971;BME280;58632;51.718;19.446;2023-03-24T05:52:16;98757.41;;;10.38;100.00
70971;BME280;58632;51.718;19.446;2023-03-24T05:54:41;98750.78;;;10.44;100.00
70971;BME280;58632;51.718;19.446;2023-03-24T05:57:09;98748.13;;;10.49;100.00
70971;BME280;58632;51.718;19.446;2023-03-24T05:59:36;98748.84;;;10.55;100.00
70971;BME280;58632;51.718;19.446;2023-03-24T06:02:03;98747.77;;;10.61;100.00
70971;BME280;58632;51.718;19.446;2023-03-24T06:04:28;98748.11;;;10.65;100.00
70971;BME280;58632;51.718;19.446;2023-03-24T06:06:57;98747.20;;;10.69;100.00
70971;BME280;58632;51.718;19.446;2023-03-24T06:09:26;98742.48;;;10.76;100.00
70971;BME280;58632;51.718;19.446;2023-03-24T06:12:02;98740.80;;;10.86;100.00
70971;BME280;58632;51.718;19.446;2023-03-24T06:14:28;98745.64;;;10.91;100.00
70971;BME280;58632;51.718;19.446;2023-03-24T06:16:54;98743.37;;;10.94;100.00
70971;BME280;58632;51.718;19.446;2023-03-24T06:19:23;98744.63;;;10.97;100.00
70971;BME280;58632;51.718;19.446;2023-03-24T06:21:49;98742.16;;;11.02;100.00
70971;BME280;58632;51.718;19.446;2023-03-24T06:24:18;98744.64;;;11.10;100.00
70971;BME280;58632;51.718;19.446;2023-03-24T06:26:44;98741.36;;;11.16;100.00
70971;BME280;58632;51.718;19.446;2023-03-24T06:29:13;98739.64;;;11.22;100.00
70971;BME280;58632;51.718;19.446;2023-03-24T06:31:42;98735.65;;;11.28;100.00
70971;BME280;58632;51.718;19.446;2023-03-24T06:34:08;98734.09;;;11.37;100.00
70971;BME280;58632;51.718;19.446;2023-03-24T06:36:34;98728.98;;;11.46;100.00
70971;BME280;58632;51.718;19.446;2023-03-24T06:39:00;98728.05;;;11.49;100.00
70971;BME280;58632;51.718;19.446;2023-03-24T06:41:26;98723.44;;;11.53;100.00
70971;BME280;58632;51.718;19.446;2023-03-24T06:43:52;98719.46;;;11.54;100.00
70971;BME280;58632;51.718;19.446;2023-03-24T06:46:17;98714.52;;;11.57;100.00
70971;BME280;58632;51.718;19.446;2023-03-24T06:48:43;98712.83;;;11.64;100.00
70971;BME280;58632;51.718;19.446;2023-03-24T06:51:08;98711.77;;;11.67;100.00
70971;BME280;58632;51.718;19.446;2023-03-24T06:53:34;98709.01;;;11.75;100.00
70971;BME280;58632;51.718;19.446;2023-03-24T06:56:00;98701.40;;;11.84;100.00
70971;BME280;58632;51.718;19.446;2023-03-24T06:58:25;98694.67;;;11.95;100.00
70971;BME280;58632;51.718;19.446;2023-03-24T07:00:52;98695.20;;;12.15;100.00
70971;BME280;58632;51.718;19.446;2023-03-24T07:03:17;98684.61;;;12.41;100.00
70971;BME280;58632;51.718;19.446;2023-03-24T07:05:43;98683.60;;;12.65;100.00
70971;BME280;58632;51.718;19.446;2023-03-24T07:08:09;98678.59;;;12.82;100.00
70971;BME280;58632;51.718;19.446;2023-03-24T07:10:37;98680.55;;;12.95;100.00
70971;BME280;58632;51.718;19.446;2023-03-24T07:13:04;98673.36;;;13.10;100.00
70971;BME280;58632;51.718;19.446;2023-03-24T07:15:30;98674.66;;;13.33;100.00
70971;BME280;58632;51.718;19.446;2023-03-24T07:17:56;98669.93;;;13.57;100.00
70971;BME280;58632;51.718;19.446;2023-03-24T07:20:21;98666.81;;;13.74;100.00
70971;BME280;58632;51.718;19.446;2023-03-24T07:22:47;98666.71;;;13.83;100.00
70971;BME280;58632;51.718;19.446;2023-03-24T07:25:12;98658.94;;;13.95;100.00
70971;BME280;58632;51.718;19.446;2023-03-24T07:27:38;98656.87;;;14.10;100.00
70971;BME280;58632;51.718;19.446;2023-03-24T07:30:05;98654.92;;;14.23;100.00
70971;BME280;58632;51.718;19.446;2023-03-24T07:32:31;98655.41;;;14.31;100.00
70971;BME280;58632;51.718;19.446;2023-03-24T07:35:07;98653.96;;;14.41;100.00
70971;BME280;58632;51.718;19.446;2023-03-24T07:37:32;98644.58;;;14.58;100.00
70971;BME280;58632;51.718;19.446;2023-03-24T07:39:58;98644.06;;;14.91;100.00
70971;BME280;58632;51.718;19.446;2023-03-24T07:42:24;98648.11;;;15.38;100.00
70971;BME280;58632;51.718;19.446;2023-03-24T07:44:50;98647.52;;;15.85;100.00
70971;BME280;58632;51.718;19.446;2023-03-24T07:47:16;98645.70;;;16.26;100.00
70971;BME280;58632;51.718;19.446;2023-03-24T07:49:42;98649.45;;;16.53;100.00
70971;BME280;58632;51.718;19.446;2023-03-24T07:52:08;98649.64;;;16.61;100.00
70971;BME280;58632;51.718;19.446;2023-03-24T07:54:33;98644.25;;;16.54;100.00
70971;BME280;58632;51.718;19.446;2023-03-24T07:56:59;98636.74;;;16.58;100.00
70971;BME280;58632;51.718;19.446;2023-03-24T07:59:25;98633.01;;;16.74;100.00
70971;BME280;58632;51.718;19.446;2023-03-24T08:01:51;98629.69;;;17.02;100.00
70971;BME280;58632;51.718;19.446;2023-03-24T08:04:16;98625.12;;;17.46;100.00
70971;BME280;58632;51.718;19.446;2023-03-24T08:06:42;98627.46;;;17.74;100.00
70971;BME280;58632;51.718;19.446;2023-03-24T08:09:09;98623.85;;;18.03;100.00
70971;BME280;58632;51.718;19.446;2023-03-24T08:11:35;98620.05;;;18.28;100.00
70971;BME280;58632;51.718;19.446;2023-03-24T08:14:01;98613.84;;;18.35;100.00
70971;BME280;58632;51.718;19.446;2023-03-24T08:16:27;98612.38;;;18.42;100.00
70971;BME280;58632;51.718;19.446;2023-03-24T08:18:52;98604.30;;;18.59;100.00
70971;BME280;58632;51.718;19.446;2023-03-24T08:21:22;98606.64;;;18.66;100.00
70971;BME280;58632;51.718;19.446;2023-03-24T08:23:48;98600.11;;;18.73;100.00
70971;BME280;58632;51.718;19.446;2023-03-24T08:26:13;98599.27;;;18.96;100.00
70971;BME280;58632;51.718;19.446;2023-03-24T08:28:39;98598.10;;;19.15;100.00
70971;BME280;58632;51.718;19.446;2023-03-24T08:31:05;98601.61;;;19.31;100.00
70971;BME280;58632;51.718;19.446;2023-03-24T08:33:31;98601.53;;;19.41;100.00
70971;BME280;58632;51.718;19.446;2023-03-24T08:35:57;98593.45;;;19.30;100.00
70971;BME280;58632;51.718;19.446;2023-03-24T08:38:23;98588.42;;;19.24;100.00
70971;BME280;58632;51.718;19.446;2023-03-24T08:40:54;98589.05;;;19.26;100.00
70971;BME280;58632;51.718;19.446;2023-03-24T08:43:20;98590.21;;;19.18;100.00
70971;BME280;58632;51.718;19.446;2023-03-24T08:45:47;98588.02;;;19.07;100.00
70971;BME280;58632;51.718;19.446;2023-03-24T08:48:12;98583.13;;;19.03;100.00
70971;BME280;58632;51.718;19.446;2023-03-24T08:50:39;98585.95;;;19.17;100.00
70971;BME280;58632;51.718;19.446;2023-03-24T08:53:05;98587.23;;;19.16;100.00
70971;BME280;58632;51.718;19.446;2023-03-24T08:55:30;98582.55;;;19.09;100.00
70971;BME280;58632;51.718;19.446;2023-03-24T08:57:56;98586.16;;;18.90;100.00
70971;BME280;58632;51.718;19.446;2023-03-24T09:00:22;98592.71;;;18.66;100.00
70971;BME280;58632;51.718;19.446;2023-03-24T09:02:48;98595.48;;;18.36;100.00
70971;BME280;58632;51.718;19.446;2023-03-24T09:05:14;98594.62;;;18.14;100.00
70971;BME280;58632;51.718;19.446;2023-03-24T09:07:42;98590.98;;;17.93;100.00
70971;BME280;58632;51.718;19.446;2023-03-24T09:10:08;98585.08;;;17.69;100.00
70971;BME280;58632;51.718;19.446;2023-03-24T09:12:34;98581.79;;;17.48;100.00
70971;BME280;58632;51.718;19.446;2023-03-24T09:15:00;98577.30;;;17.30;100.00
70971;BME280;58632;51.718;19.446;2023-03-24T09:17:26;98570.58;;;17.12;100.00
70971;BME280;58632;51.718;19.446;2023-03-24T09:19:52;98568.45;;;17.04;100.00
70971;BME280;58632;51.718;19.446;2023-03-24T09:22:17;98572.64;;;17.02;100.00
70971;BME280;58632;51.718;19.446;2023-03-24T09:24:43;98569.48;;;17.02;100.00
70971;BME280;58632;51.718;19.446;2023-03-24T09:27:09;98568.69;;;16.97;100.00
70971;BME280;58632;51.718;19.446;2023-03-24T09:29:35;98563.32;;;16.99;100.00
70971;BME280;58632;51.718;19.446;2023-03-24T09:32:00;98565.45;;;17.00;100.00
70971;BME280;58632;51.718;19.446;2023-03-24T09:34:26;98565.84;;;17.01;100.00
70971;BME280;58632;51.718;19.446;2023-03-24T09:36:52;98562.62;;;17.03;100.00
70971;BME280;58632;51.718;19.446;2023-03-24T09:39:17;98561.27;;;17.09;100.00
70971;BME280;58632;51.718;19.446;2023-03-24T09:41:43;98557.38;;;17.24;100.00
70971;BME280;58632;51.718;19.446;2023-03-24T09:46:46;98555.33;;;17.66;100.00
70971;BME280;58632;51.718;19.446;2023-03-24T09:49:14;98545.91;;;17.78;100.00
70971;BME280;58632;51.718;19.446;2023-03-24T09:51:44;98544.61;;;17.92;100.00
70971;BME280;58632;51.718;19.446;2023-03-24T09:54:27;98544.92;;;17.94;100.00
70971;BME280;58632;51.718;19.446;2023-03-24T09:56:55;98546.20;;;17.89;100.00
70971;BME280;58632;51.718;19.446;2023-03-24T09:59:28;98548.98;;;17.80;100.00
70971;BME280;58632;51.718;19.446;2023-03-24T10:01:56;98549.23;;;17.66;100.00
70971;BME280;58632;51.718;19.446;2023-03-24T10:04:23;98542.23;;;17.49;100.00
70971;BME280;58632;51.718;19.446;2023-03-24T10:06:51;98546.16;;;17.33;100.00
70971;BME280;58632;51.718;19.446;2023-03-24T10:09:22;98540.16;;;17.17;100.00
70971;BME280;58632;51.718;19.446;2023-03-24T10:14:37;98530.29;;;16.91;100.00
70971;BME280;58632;51.718;19.446;2023-03-24T10:22:24;98535.30;;;16.69;100.00
70971;BME280;58632;51.718;19.446;2023-03-24T10:25:04;98532.21;;;16.65;100.00
70971;BME280;58632;51.718;19.446;2023-03-24T10:27:36;98529.54;;;16.60;100.00
70971;BME280;58632;51.718;19.446;2023-03-24T10:30:11;98523.77;;;16.56;100.00
70971;BME280;58632;51.718;19.446;2023-03-24T10:32:38;98523.05;;;16.50;100.00
70971;BME280;58632;51.718;19.446;2023-03-24T10:35:06;98520.20;;;16.46;100.00
70971;BME280;58632;51.718;19.446;2023-03-24T10:37:34;98514.34;;;16.43;100.00
70971;BME280;58632;51.718;19.446;2023-03-24T10:40:00;98511.34;;;16.42;100.00
70971;BME280;58632;51.718;19.446;2023-03-24T10:42:27;98509.37;;;16.44;100.00
70971;BME280;58632;51.718;19.446;2023-03-24T10:44:55;98510.88;;;16.47;100.00
70971;BME280;58632;51.718;19.446;2023-03-24T10:47:23;98510.17;;;16.49;100.00
70971;BME280;58632;51.718;19.446;2023-03-24T10:50:00;98508.98;;;16.51;100.00
70971;BME280;58632;51.718;19.446;2023-03-24T10:52:26;98505.91;;;16.55;100.00
70971;BME280;58632;51.718;19.446;2023-03-24T10:54:54;98504.51;;;16.62;100.00
70971;BME280;58632;51.718;19.446;2023-03-24T10:57:21;98504.59;;;16.69;100.00
70971;BME280;58632;51.718;19.446;2023-03-24T10:59:54;98499.64;;;16.79;100.00
70971;BME280;58632;51.718;19.446;2023-03-24T11:02:22;98500.05;;;16.91;100.00
70971;BME280;58632;51.718;19.446;2023-03-24T11:07:23;98493.39;;;17.17;100.00
70971;BME280;58632;51.718;19.446;2023-03-24T11:09:56;98494.00;;;17.25;100.00
70971;BME280;58632;51.718;19.446;2023-03-24T11:12:23;98486.94;;;17.37;100.00
70971;BME280;58632;51.718;19.446;2023-03-24T11:14:49;98486.80;;;17.55;100.00
70971;BME280;58632;51.718;19.446;2023-03-24T11:17:17;98481.71;;;17.87;100.00
70971;BME280;58632;51.718;19.446;2023-03-24T11:19:51;98472.58;;;18.25;100.00
70971;BME280;58632;51.718;19.446;2023-03-24T11:22:17;98471.94;;;18.61;100.00
70971;BME280;58632;51.718;19.446;2023-03-24T11:24:43;98466.67;;;18.88;100.00
70971;BME280;58632;51.718;19.446;2023-03-24T11:27:12;98464.64;;;19.12;100.00
70971;BME280;58632;51.718;19.446;2023-03-24T11:29:40;98454.74;;;19.33;100.00
70971;BME280;58632;51.718;19.446;2023-03-24T11:32:10;98455.18;;;19.57;100.00
70971;BME280;58632;51.718;19.446;2023-03-24T11:34:38;98448.34;;;19.75;100.00
70971;BME280;58632;51.718;19.446;2023-03-24T11:37:13;98445.95;;;19.93;100.00
70971;BME280;58632;51.718;19.446;2023-03-24T11:39:42;98440.30;;;20.11;100.00
70971;BME280;58632;51.718;19.446;2023-03-24T11:42:15;98437.27;;;20.23;95.39
70971;BME280;58632;51.718;19.446;2023-03-24T11:44:50;98437.84;;;20.27;91.13
70971;BME280;58632;51.718;19.446;2023-03-24T11:47:33;98440.10;;;20.31;92.11
70971;BME280;58632;51.718;19.446;2023-03-24T11:52:36;98433.20;;;20.50;86.94
70971;BME280;58632;51.718;19.446;2023-03-24T11:55:05;98428.02;;;20.53;86.53
70971;BME280;58632;51.718;19.446;2023-03-24T12:00:14;98423.35;;;20.66;82.33
70971;BME280;58632;51.718;19.446;2023-03-24T12:17:41;98406.64;;;21.21;74.63
70971;BME280;58632;51.718;19.446;2023-03-24T12:20:09;98404.04;;;21.24;73.46
70971;BME280;58632;51.718;19.446;2023-03-24T12:22:44;98402.48;;;21.23;70.25
70971;BME280;58632;51.718;19.446;2023-03-24T12:25:18;98400.59;;;21.26;75.14
70971;BME280;58632;51.718;19.446;2023-03-24T12:30:29;98390.98;;;21.36;69.66
70971;BME280;58632;51.718;19.446;2023-03-24T12:33:02;98393.06;;;21.41;73.21
70971;BME280;58632;51.718;19.446;2023-03-24T12:35:55;98390.19;;;21.50;70.79
70971;BME280;58632;51.718;19.446;2023-03-24T12:57:01;98367.21;;;21.61;71.91
70971;BME280;58632;51.718;19.446;2023-03-24T12:59:32;98355.48;;;21.65;69.99
70971;BME280;58632;51.718;19.446;2023-03-24T13:04:38;98349.34;;;21.63;67.83
70971;BME280;58632;51.718;19.446;2023-03-24T13:07:07;98344.77;;;21.56;68.79
70971;BME280;58632;51.718;19.446;2023-03-24T13:09:56;98347.58;;;21.56;68.78
70971;BME280;58632;51.718;19.446;2023-03-24T13:15:13;98339.30;;;21.64;70.96
70971;BME280;58632;51.718;19.446;2023-03-24T13:17:44;98335.42;;;21.65;70.19
70971;BME280;58632;51.718;19.446;2023-03-24T13:20:12;98337.45;;;21.68;71.68
70971;BME280;58632;51.718;19.446;2023-03-24T13:22:38;98330.04;;;21.75;71.13
70971;BME280;58632;51.718;19.446;2023-03-24T13:25:06;98330.76;;;21.85;68.70
70971;BME280;58632;51.718;19.446;2023-03-24T13:27:36;98328.09;;;21.87;65.29
70971;BME280;58632;51.718;19.446;2023-03-24T13:32:40;98323.82;;;21.75;66.17
70971;BME280;58632;51.718;19.446;2023-03-24T13:40:24;98315.44;;;21.52;67.49
70971;BME280;58632;51.718;19.446;2023-03-24T13:42:57;98307.05;;;21.38;68.33
70971;BME280;58632;51.718;19.446;2023-03-24T13:45:45;98311.60;;;21.25;71.58
70971;BME280;58632;51.718;19.446;2023-03-24T13:50:41;98306.88;;;20.87;71.06
70971;BME280;58632;51.718;19.446;2023-03-24T13:53:14;98305.45;;;20.71;73.65
70971;BME280;58632;51.718;19.446;2023-03-24T13:55:45;98301.71;;;20.52;71.74
70971;BME280;58632;51.718;19.446;2023-03-24T13:58:23;98301.47;;;20.39;73.17
70971;BME280;58632;51.718;19.446;2023-03-24T14:03:39;98292.64;;;20.25;75.49
70971;BME280;58632;51.718;19.446;2023-03-24T14:06:09;98294.39;;;20.31;75.64
70971;BME280;58632;51.718;19.446;2023-03-24T14:14:05;98287.84;;;20.46;78.23
70971;BME280;58632;51.718;19.446;2023-03-24T14:16:35;98285.15;;;20.45;78.49
70971;BME280;58632;51.718;19.446;2023-03-24T14:19:16;98281.11;;;20.36;77.96
70971;BME280;58632;51.718;19.446;2023-03-24T14:21:43;98276.90;;;20.22;77.30
70971;BME280;58632;51.718;19.446;2023-03-24T14:24:16;98276.35;;;20.03;77.78
70971;BME280;58632;51.718;19.446;2023-03-24T14:26:46;98278.19;;;19.82;78.79
70971;BME280;58632;51.718;19.446;2023-03-24T14:32:00;98273.88;;;19.56;79.60
70971;BME280;58632;51.718;19.446;2023-03-24T14:34:27;98268.64;;;19.45;80.37
70971;BME280;58632;51.718;19.446;2023-03-24T14:36:56;98264.27;;;19.29;80.60
70971;BME280;58632;51.718;19.446;2023-03-24T14:39:40;98269.48;;;19.12;81.56
70971;BME280;58632;51.718;19.446;2023-03-24T14:45:03;98269.04;;;18.84;83.57
70971;BME280;58632;51.718;19.446;2023-03-24T14:47:36;98268.88;;;18.74;83.12
70971;BME280;58632;51.718;19.446;2023-03-24T14:50:16;98268.44;;;18.65;83.52
70971;BME280;58632;51.718;19.446;2023-03-24T14:52:44;98272.43;;;18.53;83.71
70971;BME280;58632;51.718;19.446;2023-03-24T14:55:13;98271.10;;;18.44;84.66
70971;BME280;58632;51.718;19.446;2023-03-24T14:57:47;98273.12;;;18.33;86.49
70971;BME280;58632;51.718;19.446;2023-03-24T15:00:26;98273.60;;;18.23;87.53